Point Lay Lrrs Airport Point Lay US
ICAO: PPIZ
IATA:
Category: Medium
Scheduled Services:

Elevation: 22 ft
TransAlt. 18000 ft.

Airport Communications:
AWOS 3:135.65
ANCHORAGE CNTR:119.65
CTAF:122.4
FAIRBANKS RDO:122.4
MISC:122.8
UNICOM:126.2

PPIZ Zoom In..

Runways:

(A) RW 05 length 4500 ft width 100 ft
---- / hdg 54

(B) RW 23 length 4500 ft width 100 ft
---- / hdg 234

Location; PPIZ
Day. 03 / Time. 09.56 Zulu
* Altimeter: 29.22
* Temperature: -13° c. -8.6°f.
* Wind from: 220° Speed 18 kn.
Dewpoint: -15° c.
Visibility: 9 Statute Miles.
Clouds: Clear (automated report).
Conditions: Light Snow.

PPIZ 030956Z AUTO 22018KT 9SM -SN CLR M13/M15 A2922 RMK AO2 SLP899 P0000 T11331150 FZRANO

Going to: --> -->


Wind From 220°
Speed 18 kn.

 
 
jpsmedia worldairports.se 2020   terms of use